sensor_id;sensor_type;location;lat;lon;timestamp;temperature;humidity
8231;DHT22;4156;50.908;6.974;2023-02-27T00:00:47;3.40;99.90
8231;DHT22;4156;50.908;6.974;2023-02-27T00:03:13;3.40;99.90
8231;DHT22;4156;50.908;6.974;2023-02-27T00:05:40;3.40;99.90
8231;DHT22;4156;50.908;6.974;2023-02-27T00:08:05;3.40;99.90
8231;DHT22;4156;50.908;6.974;2023-02-27T00:10:31;3.30;99.90
8231;DHT22;4156;50.908;6.974;2023-02-27T00:12:56;3.40;99.90
8231;DHT22;4156;50.908;6.974;2023-02-27T00:15:22;3.30;99.90
8231;DHT22;4156;50.908;6.974;2023-02-27T00:17:48;3.30;99.90
8231;DHT22;4156;50.908;6.974;2023-02-27T00:20:15;3.30;99.90
8231;DHT22;4156;50.908;6.974;2023-02-27T00:22:41;3.30;99.90
8231;DHT22;4156;50.908;6.974;2023-02-27T00:25:07;3.30;99.90
8231;DHT22;4156;50.908;6.974;2023-02-27T00:27:33;3.30;99.90
8231;DHT22;4156;50.908;6.974;2023-02-27T00:29:59;3.30;99.90
8231;DHT22;4156;50.908;6.974;2023-02-27T00:32:25;3.30;99.90
8231;DHT22;4156;50.908;6.974;2023-02-27T00:34:51;3.30;99.90
8231;DHT22;4156;50.908;6.974;2023-02-27T00:37:16;3.30;99.90
8231;DHT22;4156;50.908;6.974;2023-02-27T00:39:42;3.30;99.90
8231;DHT22;4156;50.908;6.974;2023-02-27T00:42:07;3.30;99.90
8231;DHT22;4156;50.908;6.974;2023-02-27T00:44:33;3.20;99.90
8231;DHT22;4156;50.908;6.974;2023-02-27T00:46:58;3.20;99.90
8231;DHT22;4156;50.908;6.974;2023-02-27T00:49:24;3.10;99.90
8231;DHT22;4156;50.908;6.974;2023-02-27T00:51:50;3.20;99.90
8231;DHT22;4156;50.908;6.974;2023-02-27T00:54:16;3.10;99.90
8231;DHT22;4156;50.908;6.974;2023-02-27T00:56:41;3.20;99.90
8231;DHT22;4156;50.908;6.974;2023-02-27T00:59:07;3.20;99.90
8231;DHT22;4156;50.908;6.974;2023-02-27T01:01:33;3.20;99.90
8231;DHT22;4156;50.908;6.974;2023-02-27T01:03:59;3.20;99.90
8231;DHT22;4156;50.908;6.974;2023-02-27T01:06:24;3.10;99.90
8231;DHT22;4156;50.908;6.974;2023-02-27T01:08:50;3.10;99.90
8231;DHT22;4156;50.908;6.974;2023-02-27T01:11:15;3.20;99.90
8231;DHT22;4156;50.908;6.974;2023-02-27T01:13:41;3.10;99.90
8231;DHT22;4156;50.908;6.974;2023-02-27T01:16:08;3.10;99.90
8231;DHT22;4156;50.908;6.974;2023-02-27T01:18:34;3.10;99.90
8231;DHT22;4156;50.908;6.974;2023-02-27T01:21:00;3.00;99.90
8231;DHT22;4156;50.908;6.974;2023-02-27T01:23:26;3.00;99.90
8231;DHT22;4156;50.908;6.974;2023-02-27T01:25:51;3.00;99.90
8231;DHT22;4156;50.908;6.974;2023-02-27T01:28:17;3.00;99.90
8231;DHT22;4156;50.908;6.974;2023-02-27T01:30:42;3.00;99.90
8231;DHT22;4156;50.908;6.974;2023-02-27T01:33:08;3.00;99.90
8231;DHT22;4156;50.908;6.974;2023-02-27T01:35:34;3.00;99.90
8231;DHT22;4156;50.908;6.974;2023-02-27T01:37:59;3.00;99.90
8231;DHT22;4156;50.908;6.974;2023-02-27T01:40:25;3.00;99.90
8231;DHT22;4156;50.908;6.974;2023-02-27T01:42:51;3.00;99.90
8231;DHT22;4156;50.908;6.974;2023-02-27T01:45:35;3.00;99.90
8231;DHT22;4156;50.908;6.974;2023-02-27T01:50:33;3.00;99.90
8231;DHT22;4156;50.908;6.974;2023-02-27T01:53:00;3.00;99.90
8231;DHT22;4156;50.908;6.974;2023-02-27T01:55:29;3.00;99.90
8231;DHT22;4156;50.908;6.974;2023-02-27T01:57:56;3.00;99.90
8231;DHT22;4156;50.908;6.974;2023-02-27T02:00:22;2.90;99.90
8231;DHT22;4156;50.908;6.974;2023-02-27T02:03:00;2.90;99.90
8231;DHT22;4156;50.908;6.974;2023-02-27T02:05:29;2.90;99.90
8231;DHT22;4156;50.908;6.974;2023-02-27T02:07:56;2.90;99.90
8231;DHT22;4156;50.908;6.974;2023-02-27T02:10:21;2.90;99.90
8231;DHT22;4156;50.908;6.974;2023-02-27T02:12:47;2.90;99.90
8231;DHT22;4156;50.908;6.974;2023-02-27T02:15:14;2.80;99.90
8231;DHT22;4156;50.908;6.974;2023-02-27T02:18:20;2.80;99.90
8231;DHT22;4156;50.908;6.974;2023-02-27T02:26:52;2.70;99.90
8231;DHT22;4156;50.908;6.974;2023-02-27T02:32:25;2.80;99.90
8231;DHT22;4156;50.908;6.974;2023-02-27T02:43:30;2.70;99.90
8231;DHT22;4156;50.908;6.974;2023-02-27T02:46:14;2.70;99.90
8231;DHT22;4156;50.908;6.974;2023-02-27T02:48:48;2.70;99.90
8231;DHT22;4156;50.908;6.974;2023-02-27T02:51:40;2.70;99.90
8231;DHT22;4156;50.908;6.974;2023-02-27T02:54:19;2.70;99.90
8231;DHT22;4156;50.908;6.974;2023-02-27T02:57:06;2.60;99.90
8231;DHT22;4156;50.908;6.974;2023-02-27T02:59:37;2.60;99.90
8231;DHT22;4156;50.908;6.974;2023-02-27T03:02:16;2.60;99.90
8231;DHT22;4156;50.908;6.974;2023-02-27T03:04:56;2.60;99.90
8231;DHT22;4156;50.908;6.974;2023-02-27T03:07:28;2.60;99.90
8231;DHT22;4156;50.908;6.974;2023-02-27T03:09:59;2.60;99.90
8231;DHT22;4156;50.908;6.974;2023-02-27T03:12:28;2.60;99.90
8231;DHT22;4156;50.908;6.974;2023-02-27T03:15:03;2.60;99.90
8231;DHT22;4156;50.908;6.974;2023-02-27T03:17:43;2.60;99.90
8231;DHT22;4156;50.908;6.974;2023-02-27T03:20:21;2.60;99.90
8231;DHT22;4156;50.908;6.974;2023-02-27T03:22:53;2.60;99.90
8231;DHT22;4156;50.908;6.974;2023-02-27T03:25:20;2.60;99.90
8231;DHT22;4156;50.908;6.974;2023-02-27T03:27:54;2.50;99.90
8231;DHT22;4156;50.908;6.974;2023-02-27T03:30:46;2.50;99.90
8231;DHT22;4156;50.908;6.974;2023-02-27T03:33:21;2.50;99.90
8231;DHT22;4156;50.908;6.974;2023-02-27T03:38:34;2.50;99.90
8231;DHT22;4156;50.908;6.974;2023-02-27T03:41:07;2.50;99.90
8231;DHT22;4156;50.908;6.974;2023-02-27T03:43:47;2.40;99.90
8231;DHT22;4156;50.908;6.974;2023-02-27T03:46:21;2.40;99.90
8231;DHT22;4156;50.908;6.974;2023-02-27T03:48:48;2.40;99.90
8231;DHT22;4156;50.908;6.974;2023-02-27T03:51:16;2.40;99.90
8231;DHT22;4156;50.908;6.974;2023-02-27T03:53:49;2.40;99.90
8231;DHT22;4156;50.908;6.974;2023-02-27T03:56:19;2.40;99.90
8231;DHT22;4156;50.908;6.974;2023-02-27T03:58:46;2.40;99.90
8231;DHT22;4156;50.908;6.974;2023-02-27T04:01:12;2.40;99.90
8231;DHT22;4156;50.908;6.974;2023-02-27T04:03:47;2.40;99.90
8231;DHT22;4156;50.908;6.974;2023-02-27T04:06:15;2.40;99.90
8231;DHT22;4156;50.908;6.974;2023-02-27T04:11:57;2.40;99.90
8231;DHT22;4156;50.908;6.974;2023-02-27T04:22:45;2.30;99.90
8231;DHT22;4156;50.908;6.974;2023-02-27T04:25:33;2.30;99.90
8231;DHT22;4156;50.908;6.974;2023-02-27T04:28:32;2.40;99.90
8231;DHT22;4156;50.908;6.974;2023-02-27T04:33:39;2.30;99.90
8231;DHT22;4156;50.908;6.974;2023-02-27T04:36:25;2.30;99.90
8231;DHT22;4156;50.908;6.974;2023-02-27T04:41:33;2.30;99.90
8231;DHT22;4156;50.908;6.974;2023-02-27T04:44:01;2.30;99.90
8231;DHT22;4156;50.908;6.974;2023-02-27T04:46:28;2.30;99.90
8231;DHT22;4156;50.908;6.974;2023-02-27T04:49:42;2.30;99.90
8231;DHT22;4156;50.908;6.974;2023-02-27T04:51:59;2.30;99.90
8231;DHT22;4156;50.908;6.974;2023-02-27T04:54:33;2.30;99.90
8231;DHT22;4156;50.908;6.974;2023-02-27T04:57:03;2.30;99.90
8231;DHT22;4156;50.908;6.974;2023-02-27T04:59:35;2.30;99.90
8231;DHT22;4156;50.908;6.974;2023-02-27T05:02:21;2.30;99.90
8231;DHT22;4156;50.908;6.974;2023-02-27T05:04:52;2.30;99.90
8231;DHT22;4156;50.908;6.974;2023-02-27T05:07:22;2.30;99.90
8231;DHT22;4156;50.908;6.974;2023-02-27T05:10:06;2.30;99.90
8231;DHT22;4156;50.908;6.974;2023-02-27T05:12:57;2.30;99.90
8231;DHT22;4156;50.908;6.974;2023-02-27T05:15:35;2.60;99.90
8231;DHT22;4156;50.908;6.974;2023-02-27T05:18:09;2.30;99.90
8231;DHT22;4156;50.908;6.974;2023-02-27T05:20:46;2.20;99.90
8231;DHT22;4156;50.908;6.974;2023-02-27T05:23:37;2.20;99.90
8231;DHT22;4156;50.908;6.974;2023-02-27T05:26:30;2.20;99.90
8231;DHT22;4156;50.908;6.974;2023-02-27T05:29:23;2.20;99.90
8231;DHT22;4156;50.908;6.974;2023-02-27T05:31:56;2.20;99.90
8231;DHT22;4156;50.908;6.974;2023-02-27T05:34:36;2.20;99.90
8231;DHT22;4156;50.908;6.974;2023-02-27T05:37:11;2.10;99.90
8231;DHT22;4156;50.908;6.974;2023-02-27T05:39:39;2.10;99.90
8231;DHT22;4156;50.908;6.974;2023-02-27T05:42:10;2.20;99.90
8231;DHT22;4156;50.908;6.974;2023-02-27T05:44:43;2.10;99.90
8231;DHT22;4156;50.908;6.974;2023-02-27T05:47:15;2.20;99.90
8231;DHT22;4156;50.908;6.974;2023-02-27T05:49:56;2.20;99.90
8231;DHT22;4156;50.908;6.974;2023-02-27T05:52:24;2.10;99.90
8231;DHT22;4156;50.908;6.974;2023-02-27T05:55:06;2.20;99.90
8231;DHT22;4156;50.908;6.974;2023-02-27T05:57:49;2.10;99.90
8231;DHT22;4156;50.908;6.974;2023-02-27T06:00:40;2.10;99.90
8231;DHT22;4156;50.908;6.974;2023-02-27T06:03:08;2.10;99.90
8231;DHT22;4156;50.908;6.974;2023-02-27T06:05:35;2.10;99.90
8231;DHT22;4156;50.908;6.974;2023-02-27T06:08:01;2.10;99.90
8231;DHT22;4156;50.908;6.974;2023-02-27T06:10:27;2.10;99.90
8231;DHT22;4156;50.908;6.974;2023-02-27T06:12:52;2.10;99.90
8231;DHT22;4156;50.908;6.974;2023-02-27T06:15:18;2.10;99.90
8231;DHT22;4156;50.908;6.974;2023-02-27T06:17:44;2.10;99.90
8231;DHT22;4156;50.908;6.974;2023-02-27T06:20:10;2.10;99.90
8231;DHT22;4156;50.908;6.974;2023-02-27T06:22:36;2.20;99.90
8231;DHT22;4156;50.908;6.974;2023-02-27T06:25:02;2.10;99.90
8231;DHT22;4156;50.908;6.974;2023-02-27T06:27:27;2.20;99.90
8231;DHT22;4156;50.908;6.974;2023-02-27T06:29:53;2.10;99.90
8231;DHT22;4156;50.908;6.974;2023-02-27T06:32:20;2.10;99.90
8231;DHT22;4156;50.908;6.974;2023-02-27T06:34:45;2.10;99.90
8231;DHT22;4156;50.908;6.974;2023-02-27T06:37:11;2.10;99.90
8231;DHT22;4156;50.908;6.974;2023-02-27T06:39:37;2.10;99.90
8231;DHT22;4156;50.908;6.974;2023-02-27T06:42:02;2.10;99.90
8231;DHT22;4156;50.908;6.974;2023-02-27T06:44:28;2.10;99.90
8231;DHT22;4156;50.908;6.974;2023-02-27T06:46:54;2.10;99.90
8231;DHT22;4156;50.908;6.974;2023-02-27T06:49:20;2.10;99.90
8231;DHT22;4156;50.908;6.974;2023-02-27T06:51:45;2.10;99.90
8231;DHT22;4156;50.908;6.974;2023-02-27T06:54:11;2.10;99.90
8231;DHT22;4156;50.908;6.974;2023-02-27T06:56:37;2.10;99.90
8231;DHT22;4156;50.908;6.974;2023-02-27T06:59:02;2.20;99.90
8231;DHT22;4156;50.908;6.974;2023-02-27T07:01:28;2.10;99.90
8231;DHT22;4156;50.908;6.974;2023-02-27T07:03:53;2.20;99.90
8231;DHT22;4156;50.908;6.974;2023-02-27T07:06:19;2.20;99.90
8231;DHT22;4156;50.908;6.974;2023-02-27T07:08:44;2.10;99.90
8231;DHT22;4156;50.908;6.974;2023-02-27T07:11:10;2.20;99.90
8231;DHT22;4156;50.908;6.974;2023-02-27T07:13:36;2.20;99.90
8231;DHT22;4156;50.908;6.974;2023-02-27T07:16:01;2.20;99.90
8231;DHT22;4156;50.908;6.974;2023-02-27T07:18:27;2.20;99.90
8231;DHT22;4156;50.908;6.974;2023-02-27T07:20:53;2.20;99.90
8231;DHT22;4156;50.908;6.974;2023-02-27T07:23:22;2.30;99.90
8231;DHT22;4156;50.908;6.974;2023-02-27T07:25:48;2.30;99.90
8231;DHT22;4156;50.908;6.974;2023-02-27T07:28:14;2.30;99.90
8231;DHT22;4156;50.908;6.974;2023-02-27T07:30:40;2.30;99.90
8231;DHT22;4156;50.908;6.974;2023-02-27T07:33:06;2.40;99.90
8231;DHT22;4156;50.908;6.974;2023-02-27T07:35:31;2.50;99.90
8231;DHT22;4156;50.908;6.974;2023-02-27T07:37:57;2.60;99.90
8231;DHT22;4156;50.908;6.974;2023-02-27T07:40:22;2.60;99.90
8231;DHT22;4156;50.908;6.974;2023-02-27T07:42:48;2.70;99.90
8231;DHT22;4156;50.908;6.974;2023-02-27T07:45:14;2.80;99.90
8231;DHT22;4156;50.908;6.974;2023-02-27T07:47:43;2.80;99.90
8231;DHT22;4156;50.908;6.974;2023-02-27T07:50:09;2.80;99.90
8231;DHT22;4156;50.908;6.974;2023-02-27T07:52:41;2.90;99.90
8231;DHT22;4156;50.908;6.974;2023-02-27T07:55:07;2.90;99.90
8231;DHT22;4156;50.908;6.974;2023-02-27T07:57:33;2.90;99.90
8231;DHT22;4156;50.908;6.974;2023-02-27T07:59:59;3.00;99.90
8231;DHT22;4156;50.908;6.974;2023-02-27T08:02:24;3.00;99.90
8231;DHT22;4156;50.908;6.974;2023-02-27T08:04:50;3.10;99.90
8231;DHT22;4156;50.908;6.974;2023-02-27T08:07:16;3.10;99.90
8231;DHT22;4156;50.908;6.974;2023-02-27T08:09:42;3.10;99.90
8231;DHT22;4156;50.908;6.974;2023-02-27T08:12:07;3.20;99.90
8231;DHT22;4156;50.908;6.974;2023-02-27T08:14:33;3.20;99.90
8231;DHT22;4156;50.908;6.974;2023-02-27T08:16:58;3.30;99.90
8231;DHT22;4156;50.908;6.974;2023-02-27T08:19:27;3.30;99.90
8231;DHT22;4156;50.908;6.974;2023-02-27T08:21:52;3.30;99.90
8231;DHT22;4156;50.908;6.974;2023-02-27T08:24:18;3.40;99.90
8231;DHT22;4156;50.908;6.974;2023-02-27T08:26:44;3.40;99.90
8231;DHT22;4156;50.908;6.974;2023-02-27T08:29:09;3.40;99.90
8231;DHT22;4156;50.908;6.974;2023-02-27T08:31:35;3.50;99.90
8231;DHT22;4156;50.908;6.974;2023-02-27T08:34:00;3.50;99.90
8231;DHT22;4156;50.908;6.974;2023-02-27T08:36:26;3.50;99.90
8231;DHT22;4156;50.908;6.974;2023-02-27T08:38:51;3.60;99.90
8231;DHT22;4156;50.908;6.974;2023-02-27T08:41:17;3.60;99.90
8231;DHT22;4156;50.908;6.974;2023-02-27T08:43:42;3.60;99.90
8231;DHT22;4156;50.908;6.974;2023-02-27T08:46:08;3.60;99.90
8231;DHT22;4156;50.908;6.974;2023-02-27T08:48:33;3.70;99.90
8231;DHT22;4156;50.908;6.974;2023-02-27T08:50:59;3.70;99.90
8231;DHT22;4156;50.908;6.974;2023-02-27T08:53:24;3.80;99.90
8231;DHT22;4156;50.908;6.974;2023-02-27T08:55:50;3.80;99.90
8231;DHT22;4156;50.908;6.974;2023-02-27T08:58:16;3.80;99.90
8231;DHT22;4156;50.908;6.974;2023-02-27T09:00:42;3.90;99.90
8231;DHT22;4156;50.908;6.974;2023-02-27T09:03:08;3.90;99.90
8231;DHT22;4156;50.908;6.974;2023-02-27T09:05:33;3.90;99.90
8231;DHT22;4156;50.908;6.974;2023-02-27T09:08:00;3.90;99.90
8231;DHT22;4156;50.908;6.974;2023-02-27T09:10:26;3.90;99.90
8231;DHT22;4156;50.908;6.974;2023-02-27T09:12:52;3.90;99.90
8231;DHT22;4156;50.908;6.974;2023-02-27T09:15:18;4.00;99.90
8231;DHT22;4156;50.908;6.974;2023-02-27T09:17:43;4.00;99.90
8231;DHT22;4156;50.908;6.974;2023-02-27T09:20:10;4.00;99.90
8231;DHT22;4156;50.908;6.974;2023-02-27T09:22:36;4.30;99.90
8231;DHT22;4156;50.908;6.974;2023-02-27T09:25:02;4.10;99.90
8231;DHT22;4156;50.908;6.974;2023-02-27T09:27:27;4.10;99.90
8231;DHT22;4156;50.908;6.974;2023-02-27T09:29:53;4.20;99.90
8231;DHT22;4156;50.908;6.974;2023-02-27T09:32:21;4.20;99.90
8231;DHT22;4156;50.908;6.974;2023-02-27T09:34:47;4.30;99.90
8231;DHT22;4156;50.908;6.974;2023-02-27T09:37:12;4.30;99.90
8231;DHT22;4156;50.908;6.974;2023-02-27T09:39:39;4.30;99.90
8231;DHT22;4156;50.908;6.974;2023-02-27T09:42:15;4.30;99.90
8231;DHT22;4156;50.908;6.974;2023-02-27T09:44:46;4.30;99.90
8231;DHT22;4156;50.908;6.974;2023-02-27T09:47:17;4.30;99.90
8231;DHT22;4156;50.908;6.974;2023-02-27T09:50:04;4.40;99.90
8231;DHT22;4156;50.908;6.974;2023-02-27T09:52:32;4.40;99.90
8231;DHT22;4156;50.908;6.974;2023-02-27T09:54:59;4.40;99.90
8231;DHT22;4156;50.908;6.974;2023-02-27T09:57:37;4.40;99.90
8231;DHT22;4156;50.908;6.974;2023-02-27T10:00:09;4.40;99.90
8231;DHT22;4156;50.908;6.974;2023-02-27T10:05:25;4.50;99.90
8231;DHT22;4156;50.908;6.974;2023-02-27T10:16:20;4.60;99.90
8231;DHT22;4156;50.908;6.974;2023-02-27T10:19:12;4.60;99.90
8231;DHT22;4156;50.908;6.974;2023-02-27T10:21:40;4.60;99.90
8231;DHT22;4156;50.908;6.974;2023-02-27T10:24:16;4.60;99.90
8231;DHT22;4156;50.908;6.974;2023-02-27T10:26:48;4.70;99.90
8231;DHT22;4156;50.908;6.974;2023-02-27T10:29:26;4.70;99.90
8231;DHT22;4156;50.908;6.974;2023-02-27T10:32:05;4.70;99.90
8231;DHT22;4156;50.908;6.974;2023-02-27T10:34:34;4.70;99.90
8231;DHT22;4156;50.908;6.974;2023-02-27T10:37:03;4.70;99.90
8231;DHT22;4156;50.908;6.974;2023-02-27T10:39:46;4.70;99.90
8231;DHT22;4156;50.908;6.974;2023-02-27T10:42:14;4.70;99.90
8231;DHT22;4156;50.908;6.974;2023-02-27T10:44:40;4.80;99.90
8231;DHT22;4156;50.908;6.974;2023-02-27T10:47:06;4.80;99.90
8231;DHT22;4156;50.908;6.974;2023-02-27T10:49:34;4.90;99.90
8231;DHT22;4156;50.908;6.974;2023-02-27T10:52:11;4.90;99.90
8231;DHT22;4156;50.908;6.974;2023-02-27T10:54:37;4.80;99.90
8231;DHT22;4156;50.908;6.974;2023-02-27T10:57:27;4.90;99.90
8231;DHT22;4156;50.908;6.974;2023-02-27T11:00:00;4.90;99.90
8231;DHT22;4156;50.908;6.974;2023-02-27T11:02:35;4.90;99.90
8231;DHT22;4156;50.908;6.974;2023-02-27T11:05:03;4.90;99.90
8231;DHT22;4156;50.908;6.974;2023-02-27T11:07:36;5.00;99.90
8231;DHT22;4156;50.908;6.974;2023-02-27T11:12:38;5.00;99.90
8231;DHT22;4156;50.908;6.974;2023-02-27T11:17:39;5.00;99.90
8231;DHT22;4156;50.908;6.974;2023-02-27T11:23:19;5.00;99.90
8231;DHT22;4156;50.908;6.974;2023-02-27T11:25:46;5.10;99.90
8231;DHT22;4156;50.908;6.974;2023-02-27T11:28:27;5.00;99.90
8231;DHT22;4156;50.908;6.974;2023-02-27T11:31:02;5.00;99.90
8231;DHT22;4156;50.908;6.974;2023-02-27T11:33:39;5.10;99.90
8231;DHT22;4156;50.908;6.974;2023-02-27T11:36:11;5.10;99.90
8231;DHT22;4156;50.908;6.974;2023-02-27T11:38:37;5.10;99.90
8231;DHT22;4156;50.908;6.974;2023-02-27T11:41:04;5.10;99.90
8231;DHT22;4156;50.908;6.974;2023-02-27T11:43:39;5.20;99.90
8231;DHT22;4156;50.908;6.974;2023-02-27T11:46:11;5.20;99.90
8231;DHT22;4156;50.908;6.974;2023-02-27T11:48:46;5.20;99.90
8231;DHT22;4156;50.908;6.974;2023-02-27T11:51:33;5.20;99.90
8231;DHT22;4156;50.908;6.974;2023-02-27T11:54:24;5.20;99.90
8231;DHT22;4156;50.908;6.974;2023-02-27T11:57:00;5.30;99.90
8231;DHT22;4156;50.908;6.974;2023-02-27T12:05:16;5.40;99.90
8231;DHT22;4156;50.908;6.974;2023-02-27T12:08:14;5.50;99.90
8231;DHT22;4156;50.908;6.974;2023-02-27T12:10:54;5.50;99.90
8231;DHT22;4156;50.908;6.974;2023-02-27T12:13:27;5.50;99.90
8231;DHT22;4156;50.908;6.974;2023-02-27T12:18:45;5.50;99.90
8231;DHT22;4156;50.908;6.974;2023-02-27T12:21:38;5.50;99.90
8231;DHT22;4156;50.908;6.974;2023-02-27T12:24:16;5.50;99.90
8231;DHT22;4156;50.908;6.974;2023-02-27T12:26:45;5.60;99.90
8231;DHT22;4156;50.908;6.974;2023-02-27T12:29:37;5.60;99.90
8231;DHT22;4156;50.908;6.974;2023-02-27T12:32:42;5.60;99.90
8231;DHT22;4156;50.908;6.974;2023-02-27T12:35:19;5.60;99.90
8231;DHT22;4156;50.908;6.974;2023-02-27T12:37:45;5.60;99.90
8231;DHT22;4156;50.908;6.974;2023-02-27T12:40:15;5.60;99.90
8231;DHT22;4156;50.908;6.974;2023-02-27T12:42:48;5.60;99.90
8231;DHT22;4156;50.908;6.974;2023-02-27T12:45:21;5.60;99.90
8231;DHT22;4156;50.908;6.974;2023-02-27T12:50:24;5.70;99.90
8231;DHT22;4156;50.908;6.974;2023-02-27T12:55:41;5.70;99.90
8231;DHT22;4156;50.908;6.974;2023-02-27T12:58:34;5.70;99.90
8231;DHT22;4156;50.908;6.974;2023-02-27T13:04:30;5.80;99.90
8231;DHT22;4156;50.908;6.974;2023-02-27T13:07:17;5.80;99.90
8231;DHT22;4156;50.908;6.974;2023-02-27T13:09:57;5.80;99.90
8231;DHT22;4156;50.908;6.974;2023-02-27T13:12:37;5.80;99.90
8231;DHT22;4156;50.908;6.974;2023-02-27T13:17:45;5.90;99.90
8231;DHT22;4156;50.908;6.974;2023-02-27T13:22:57;5.90;99.90
8231;DHT22;4156;50.908;6.974;2023-02-27T13:25:29;5.90;99.90
8231;DHT22;4156;50.908;6.974;2023-02-27T13:27:59;5.90;99.90
8231;DHT22;4156;50.908;6.974;2023-02-27T13:30:40;5.90;99.90
8231;DHT22;4156;50.908;6.974;2023-02-27T13:33:33;6.00;99.90
8231;DHT22;4156;50.908;6.974;2023-02-27T13:38:31;6.00;99.90
8231;DHT22;4156;50.908;6.974;2023-02-27T13:43:54;6.00;99.90
8231;DHT22;4156;50.908;6.974;2023-02-27T13:46:30;6.00;99.90
8231;DHT22;4156;50.908;6.974;2023-02-27T13:59:39;6.10;99.90
8231;DHT22;4156;50.908;6.974;2023-02-27T14:02:40;6.10;99.90
8231;DHT22;4156;50.908;6.974;2023-02-27T14:05:09;6.10;99.90
8231;DHT22;4156;50.908;6.974;2023-02-27T14:07:57;6.10;99.90
8231;DHT22;4156;50.908;6.974;2023-02-27T14:10:28;6.10;99.90
8231;DHT22;4156;50.908;6.974;2023-02-27T14:12:56;6.10;99.90
8231;DHT22;4156;50.908;6.974;2023-02-27T14:17:51;6.20;99.90
8231;DHT22;4156;50.908;6.974;2023-02-27T14:26:01;6.20;99.90
8231;DHT22;4156;50.908;6.974;2023-02-27T14:28:50;6.20;99.90
8231;DHT22;4156;50.908;6.974;2023-02-27T14:31:28;6.20;99.90
8231;DHT22;4156;50.908;6.974;2023-02-27T14:33:55;6.20;99.90
8231;DHT22;4156;50.908;6.974;2023-02-27T14:36:27;6.20;99.90
8231;DHT22;4156;50.908;6.974;2023-02-27T14:38:56;6.20;99.90
8231;DHT22;4156;50.908;6.974;2023-02-27T14:43:59;6.20;99.90
8231;DHT22;4156;50.908;6.974;2023-02-27T14:46:39;6.30;99.90
8231;DHT22;4156;50.908;6.974;2023-02-27T14:49:15;6.30;99.90
8231;DHT22;4156;50.908;6.974;2023-02-27T14:51:42;6.30;99.90
8231;DHT22;4156;50.908;6.974;2023-02-27T14:54:19;6.30;99.90
8231;DHT22;4156;50.908;6.974;2023-02-27T14:59:42;6.40;99.90
8231;DHT22;4156;50.908;6.974;2023-02-27T15:02:22;6.40;99.90
8231;DHT22;4156;50.908;6.974;2023-02-27T15:04:57;6.30;99.90
8231;DHT22;4156;50.908;6.974;2023-02-27T15:07:37;6.40;99.90
8231;DHT22;4156;50.908;6.974;2023-02-27T15:10:07;6.30;99.90
8231;DHT22;4156;50.908;6.974;2023-02-27T15:12:37;6.30;99.90
8231;DHT22;4156;50.908;6.974;2023-02-27T15:15:04;6.40;99.90
8231;DHT22;4156;50.908;6.974;2023-02-27T15:17:40;6.30;99.90
8231;DHT22;4156;50.908;6.974;2023-02-27T15:23:40;6.40;99.90
8231;DHT22;4156;50.908;6.974;2023-02-27T15:25:40;6.40;99.90
8231;DHT22;4156;50.908;6.974;2023-02-27T15:28:22;6.40;99.90
8231;DHT22;4156;50.908;6.974;2023-02-27T15:30:49;6.40;99.90
8231;DHT22;4156;50.908;6.974;2023-02-27T15:33:15;6.40;99.90
8231;DHT22;4156;50.908;6.974;2023-02-27T15:35:44;6.40;99.90
8231;DHT22;4156;50.908;6.974;2023-02-27T15:40:56;6.40;99.90
8231;DHT22;4156;50.908;6.974;2023-02-27T15:43:22;6.40;99.90
8231;DHT22;4156;50.908;6.974;2023-02-27T15:45:49;6.40;99.90
8231;DHT22;4156;50.908;6.974;2023-02-27T15:48:15;6.40;99.90
8231;DHT22;4156;50.908;6.974;2023-02-27T15:50:46;6.30;99.90
8231;DHT22;4156;50.908;6.974;2023-02-27T15:53:20;6.40;99.90
8231;DHT22;4156;50.908;6.974;2023-02-27T15:55:50;6.40;99.90
8231;DHT22;4156;50.908;6.974;2023-02-27T15:58:22;6.40;99.90
8231;DHT22;4156;50.908;6.974;2023-02-27T16:00:57;6.40;99.90
8231;DHT22;4156;50.908;6.974;2023-02-27T16:03:28;6.40;99.90
8231;DHT22;4156;50.908;6.974;2023-02-27T16:05:57;6.40;99.90
8231;DHT22;4156;50.908;6.974;2023-02-27T16:08:23;6.40;99.90
8231;DHT22;4156;50.908;6.974;2023-02-27T16:10:49;6.40;99.90
8231;DHT22;4156;50.908;6.974;2023-02-27T16:15:59;6.40;99.90
8231;DHT22;4156;50.908;6.974;2023-02-27T16:19:13;6.40;99.90
8231;DHT22;4156;50.908;6.974;2023-02-27T16:21:21;6.30;99.90
8231;DHT22;4156;50.908;6.974;2023-02-27T16:23:48;6.30;99.90
8231;DHT22;4156;50.908;6.974;2023-02-27T16:26:29;6.30;99.90
8231;DHT22;4156;50.908;6.974;2023-02-27T16:28:57;6.30;99.90
8231;DHT22;4156;50.908;6.974;2023-02-27T16:31:30;6.30;99.90
8231;DHT22;4156;50.908;6.974;2023-02-27T16:33:59;6.30;99.90
8231;DHT22;4156;50.908;6.974;2023-02-27T16:36:27;6.30;99.90
8231;DHT22;4156;50.908;6.974;2023-02-27T16:38:53;6.30;99.90
8231;DHT22;4156;50.908;6.974;2023-02-27T16:41:20;6.20;99.90
8231;DHT22;4156;50.908;6.974;2023-02-27T16:43:47;6.20;99.90
8231;DHT22;4156;50.908;6.974;2023-02-27T16:46:14;6.30;99.90
8231;DHT22;4156;50.908;6.974;2023-02-27T16:48:45;6.20;99.90
8231;DHT22;4156;50.908;6.974;2023-02-27T16:51:19;6.30;99.90
8231;DHT22;4156;50.908;6.974;2023-02-27T16:53:46;6.30;99.90
8231;DHT22;4156;50.908;6.974;2023-02-27T16:56:12;6.20;99.90
8231;DHT22;4156;50.908;6.974;2023-02-27T16:58:38;6.20;99.90
8231;DHT22;4156;50.908;6.974;2023-02-27T17:01:03;6.20;99.90
8231;DHT22;4156;50.908;6.974;2023-02-27T17:03:29;6.20;99.90
8231;DHT22;4156;50.908;6.974;2023-02-27T17:05:55;6.20;99.90
8231;DHT22;4156;50.908;6.974;2023-02-27T17:08:22;6.20;99.90
8231;DHT22;4156;50.908;6.974;2023-02-27T17:10:48;6.20;99.90
8231;DHT22;4156;50.908;6.974;2023-02-27T17:13:13;6.10;99.90
8231;DHT22;4156;50.908;6.974;2023-02-27T17:15:39;6.10;99.90
8231;DHT22;4156;50.908;6.974;2023-02-27T17:18:04;6.10;99.90
8231;DHT22;4156;50.908;6.974;2023-02-27T17:20:30;6.10;99.90
8231;DHT22;4156;50.908;6.974;2023-02-27T17:22:56;6.10;99.90
8231;DHT22;4156;50.908;6.974;2023-02-27T17:25:22;6.10;99.90
8231;DHT22;4156;50.908;6.974;2023-02-27T17:27:48;6.10;99.90
8231;DHT22;4156;50.908;6.974;2023-02-27T17:30:14;6.00;99.90
8231;DHT22;4156;50.908;6.974;2023-02-27T17:32:40;6.10;99.90
8231;DHT22;4156;50.908;6.974;2023-02-27T17:35:06;6.10;99.90
8231;DHT22;4156;50.908;6.974;2023-02-27T17:37:31;6.10;99.90
8231;DHT22;4156;50.908;6.974;2023-02-27T17:39:57;6.10;99.90
8231;DHT22;4156;50.908;6.974;2023-02-27T17:42:22;6.10;99.90
8231;DHT22;4156;50.908;6.974;2023-02-27T17:44:50;6.10;99.90
8231;DHT22;4156;50.908;6.974;2023-02-27T17:47:16;6.10;99.90
8231;DHT22;4156;50.908;6.974;2023-02-27T17:49:41;6.10;99.90
8231;DHT22;4156;50.908;6.974;2023-02-27T17:52:08;6.00;99.90
8231;DHT22;4156;50.908;6.974;2023-02-27T17:54:34;6.00;99.90
8231;DHT22;4156;50.908;6.974;2023-02-27T17:57:00;6.00;99.90
8231;DHT22;4156;50.908;6.974;2023-02-27T17:59:26;6.00;99.90
8231;DHT22;4156;50.908;6.974;2023-02-27T18:01:51;6.00;99.90
8231;DHT22;4156;50.908;6.974;2023-02-27T18:04:17;6.00;99.90
8231;DHT22;4156;50.908;6.974;2023-02-27T18:06:42;6.00;99.90
8231;DHT22;4156;50.908;6.974;2023-02-27T18:09:09;6.00;99.90
8231;DHT22;4156;50.908;6.974;2023-02-27T18:11:35;6.00;99.90
8231;DHT22;4156;50.908;6.974;2023-02-27T18:14:04;6.00;99.90
8231;DHT22;4156;50.908;6.974;2023-02-27T18:16:29;5.90;99.90
8231;DHT22;4156;50.908;6.974;2023-02-27T18:18:55;5.90;99.90
8231;DHT22;4156;50.908;6.974;2023-02-27T18:21:21;5.90;99.90
8231;DHT22;4156;50.908;6.974;2023-02-27T18:23:49;5.90;99.90
8231;DHT22;4156;50.908;6.974;2023-02-27T18:26:19;5.90;99.90
8231;DHT22;4156;50.908;6.974;2023-02-27T18:28:44;5.90;99.90
8231;DHT22;4156;50.908;6.974;2023-02-27T18:31:23;5.90;99.90
8231;DHT22;4156;50.908;6.974;2023-02-27T18:33:49;5.90;99.90
8231;DHT22;4156;50.908;6.974;2023-02-27T18:36:15;5.90;99.90
8231;DHT22;4156;50.908;6.974;2023-02-27T18:38:42;5.90;99.90